sensor_id;sensor_type;location;lat;lon;timestamp;pressure;altitude;pressure_sealevel;temperature;humidity
78483;BME280;67772;50.158;8.658;2023-03-19T00:01:54;100100.34;;;12.14;63.98
78483;BME280;67772;50.158;8.658;2023-03-19T00:04:19;100103.28;;;12.08;64.51
78483;BME280;67772;50.158;8.658;2023-03-19T00:06:44;100102.13;;;11.99;64.55
78483;BME280;67772;50.158;8.658;2023-03-19T00:09:10;100105.31;;;11.91;65.70
78483;BME280;67772;50.158;8.658;2023-03-19T00:11:36;100104.50;;;11.90;66.24
78483;BME280;67772;50.158;8.658;2023-03-19T00:14:01;100108.84;;;12.06;66.03
78483;BME280;67772;50.158;8.658;2023-03-19T00:16:26;100097.16;;;12.17;66.20
78483;BME280;67772;50.158;8.658;2023-03-19T00:18:52;100103.00;;;12.09;66.07
78483;BME280;67772;50.158;8.658;2023-03-19T00:21:18;100103.50;;;12.06;66.47
78483;BME280;67772;50.158;8.658;2023-03-19T00:23:43;100112.13;;;12.13;66.28
78483;BME280;67772;50.158;8.658;2023-03-19T00:26:09;100105.94;;;12.08;66.79
78483;BME280;67772;50.158;8.658;2023-03-19T00:28:34;100108.44;;;11.83;67.31
78483;BME280;67772;50.158;8.658;2023-03-19T00:31:09;100109.59;;;11.92;67.20
78483;BME280;67772;50.158;8.658;2023-03-19T00:33:35;100111.47;;;11.96;66.93
78483;BME280;67772;50.158;8.658;2023-03-19T00:36:00;100117.09;;;11.95;66.58
78483;BME280;67772;50.158;8.658;2023-03-19T00:38:26;100110.91;;;11.89;66.78
78483;BME280;67772;50.158;8.658;2023-03-19T00:40:51;100116.44;;;11.78;67.15
78483;BME280;67772;50.158;8.658;2023-03-19T00:43:17;100115.50;;;11.57;69.09
78483;BME280;67772;50.158;8.658;2023-03-19T00:45:42;100116.56;;;11.61;68.34
78483;BME280;67772;50.158;8.658;2023-03-19T00:48:07;100120.16;;;11.72;68.17
78483;BME280;67772;50.158;8.658;2023-03-19T00:50:33;100120.31;;;11.60;67.75
78483;BME280;67772;50.158;8.658;2023-03-19T00:52:58;100115.97;;;11.54;68.49
78483;BME280;67772;50.158;8.658;2023-03-19T00:55:23;100119.19;;;11.51;68.84
78483;BME280;67772;50.158;8.658;2023-03-19T00:57:50;100117.84;;;11.53;68.35
78483;BME280;67772;50.158;8.658;2023-03-19T01:00:16;100122.72;;;11.62;68.65
78483;BME280;67772;50.158;8.658;2023-03-19T01:02:42;100122.72;;;11.62;68.21
78483;BME280;67772;50.158;8.658;2023-03-19T01:05:07;100118.66;;;11.54;68.81
78483;BME280;67772;50.158;8.658;2023-03-19T01:07:33;100124.47;;;11.46;69.37
78483;BME280;67772;50.158;8.658;2023-03-19T01:09:58;100115.25;;;11.32;69.81
78483;BME280;67772;50.158;8.658;2023-03-19T01:12:23;100116.03;;;11.27;70.02
78483;BME280;67772;50.158;8.658;2023-03-19T01:14:49;100114.38;;;11.21;69.82
78483;BME280;67772;50.158;8.658;2023-03-19T01:17:14;100121.13;;;11.29;69.46
78483;BME280;67772;50.158;8.658;2023-03-19T01:19:39;100119.59;;;11.38;69.13
78483;BME280;67772;50.158;8.658;2023-03-19T01:22:04;100121.78;;;11.46;68.84
78483;BME280;67772;50.158;8.658;2023-03-19T01:24:30;100116.41;;;11.41;69.27
78483;BME280;67772;50.158;8.658;2023-03-19T01:26:56;100127.59;;;11.38;69.69
78483;BME280;67772;50.158;8.658;2023-03-19T01:29:22;100129.13;;;11.29;69.53
78483;BME280;67772;50.158;8.658;2023-03-19T01:31:47;100127.72;;;11.21;69.86
78483;BME280;67772;50.158;8.658;2023-03-19T01:34:12;100128.84;;;11.25;69.51
78483;BME280;67772;50.158;8.658;2023-03-19T01:36:38;100132.78;;;11.18;70.25
78483;BME280;67772;50.158;8.658;2023-03-19T01:39:03;100125.63;;;11.23;69.60
78483;BME280;67772;50.158;8.658;2023-03-19T01:41:29;100123.19;;;11.22;69.47
78483;BME280;67772;50.158;8.658;2023-03-19T01:43:54;100127.47;;;11.23;70.33
78483;BME280;67772;50.158;8.658;2023-03-19T01:46:39;100124.81;;;11.23;70.23
78483;BME280;67772;50.158;8.658;2023-03-19T01:49:06;100120.00;;;11.25;69.47
78483;BME280;67772;50.158;8.658;2023-03-19T01:51:39;100115.22;;;11.27;69.90
78483;BME280;67772;50.158;8.658;2023-03-19T01:54:13;100117.16;;;11.31;69.09
78483;BME280;67772;50.158;8.658;2023-03-19T01:56:41;100105.31;;;11.22;69.85
78483;BME280;67772;50.158;8.658;2023-03-19T01:59:32;100120.28;;;11.23;70.30
78483;BME280;67772;50.158;8.658;2023-03-19T02:02:07;100119.38;;;11.13;70.49
78483;BME280;67772;50.158;8.658;2023-03-19T02:04:37;100119.38;;;11.13;70.37
78483;BME280;67772;50.158;8.658;2023-03-19T02:07:03;100117.16;;;11.05;71.02
78483;BME280;67772;50.158;8.658;2023-03-19T02:09:29;100116.66;;;11.08;71.06
78483;BME280;67772;50.158;8.658;2023-03-19T02:11:56;100122.94;;;10.97;70.93
78483;BME280;67772;50.158;8.658;2023-03-19T02:14:22;100129.94;;;11.03;70.74
78483;BME280;67772;50.158;8.658;2023-03-19T02:16:48;100131.59;;;11.09;71.24
78483;BME280;67772;50.158;8.658;2023-03-19T02:19:20;100136.38;;;11.07;71.09
78483;BME280;67772;50.158;8.658;2023-03-19T02:21:46;100127.34;;;11.08;70.61
78483;BME280;67772;50.158;8.658;2023-03-19T02:24:16;100121.09;;;10.97;71.15
78483;BME280;67772;50.158;8.658;2023-03-19T02:26:45;100121.38;;;11.01;71.13
78483;BME280;67772;50.158;8.658;2023-03-19T02:29:11;100126.22;;;11.04;71.31
78483;BME280;67772;50.158;8.658;2023-03-19T02:31:37;100118.06;;;11.15;70.15
78483;BME280;67772;50.158;8.658;2023-03-19T02:36:46;100121.44;;;11.06;71.28
78483;BME280;67772;50.158;8.658;2023-03-19T02:42:09;100121.44;;;11.06;70.71
78483;BME280;67772;50.158;8.658;2023-03-19T02:44:35;100120.06;;;11.03;71.47
78483;BME280;67772;50.158;8.658;2023-03-19T02:47:02;100127.34;;;11.08;71.05
78483;BME280;67772;50.158;8.658;2023-03-19T02:49:28;100121.91;;;10.98;71.21
78483;BME280;67772;50.158;8.658;2023-03-19T02:51:53;100132.16;;;11.11;70.72
78483;BME280;67772;50.158;8.658;2023-03-19T02:54:18;100124.22;;;11.16;70.74
78483;BME280;67772;50.158;8.658;2023-03-19T02:56:43;100123.09;;;11.12;70.38
78483;BME280;67772;50.158;8.658;2023-03-19T02:59:10;100129.16;;;11.02;71.03
78483;BME280;67772;50.158;8.658;2023-03-19T03:01:35;100123.84;;;11.07;70.59
78483;BME280;67772;50.158;8.658;2023-03-19T03:04:01;100122.78;;;11.08;70.87
78483;BME280;67772;50.158;8.658;2023-03-19T03:06:26;100122.91;;;10.92;71.49
78483;BME280;67772;50.158;8.658;2023-03-19T03:08:52;100120.41;;;10.85;71.65
78483;BME280;67772;50.158;8.658;2023-03-19T03:11:17;100126.06;;;10.89;71.97
78483;BME280;67772;50.158;8.658;2023-03-19T03:13:42;100130.09;;;10.91;71.12
78483;BME280;67772;50.158;8.658;2023-03-19T03:16:08;100129.25;;;10.86;70.86
78483;BME280;67772;50.158;8.658;2023-03-19T03:18:33;100124.91;;;10.80;72.15
78483;BME280;67772;50.158;8.658;2023-03-19T03:20:58;100127.31;;;10.81;71.46
78483;BME280;67772;50.158;8.658;2023-03-19T03:23:24;100124.78;;;10.69;71.78
78483;BME280;67772;50.158;8.658;2023-03-19T03:25:50;100129.03;;;10.44;72.84
78483;BME280;67772;50.158;8.658;2023-03-19T03:28:16;100131.25;;;10.30;73.69
78483;BME280;67772;50.158;8.658;2023-03-19T03:30:42;100142.06;;;10.40;72.90
78483;BME280;67772;50.158;8.658;2023-03-19T03:33:07;100135.81;;;10.30;73.58
78483;BME280;67772;50.158;8.658;2023-03-19T03:35:33;100133.22;;;10.18;74.16
78483;BME280;67772;50.158;8.658;2023-03-19T03:37:58;100136.97;;;10.17;74.32
78483;BME280;67772;50.158;8.658;2023-03-19T03:40:23;100140.44;;;10.18;73.86
78483;BME280;67772;50.158;8.658;2023-03-19T03:42:49;100140.09;;;10.14;73.73
78483;BME280;67772;50.158;8.658;2023-03-19T03:45:15;100135.16;;;10.23;73.66
78483;BME280;67772;50.158;8.658;2023-03-19T03:47:40;100127.97;;;10.23;73.45
78483;BME280;67772;50.158;8.658;2023-03-19T03:50:06;100130.94;;;10.27;72.78
78483;BME280;67772;50.158;8.658;2023-03-19T03:52:34;100132.75;;;10.21;73.18
78483;BME280;67772;50.158;8.658;2023-03-19T03:55:02;100146.88;;;10.22;72.82
78483;BME280;67772;50.158;8.658;2023-03-19T03:57:27;100142.00;;;10.35;71.35
78483;BME280;67772;50.158;8.658;2023-03-19T03:59:53;100146.41;;;10.46;70.37
78483;BME280;67772;50.158;8.658;2023-03-19T04:02:18;100142.78;;;10.57;68.47
78483;BME280;67772;50.158;8.658;2023-03-19T04:04:44;100146.13;;;10.48;69.04
78483;BME280;67772;50.158;8.658;2023-03-19T04:07:09;100140.56;;;10.49;69.26
78483;BME280;67772;50.158;8.658;2023-03-19T04:09:34;100138.94;;;10.48;69.20
78483;BME280;67772;50.158;8.658;2023-03-19T04:12:00;100142.00;;;10.57;69.29
78483;BME280;67772;50.158;8.658;2023-03-19T04:14:26;100147.19;;;10.68;68.65
78483;BME280;67772;50.158;8.658;2023-03-19T04:16:52;100148.72;;;10.86;66.32
78483;BME280;67772;50.158;8.658;2023-03-19T04:19:17;100145.47;;;11.06;66.30
78483;BME280;67772;50.158;8.658;2023-03-19T04:21:43;100157.75;;;11.07;65.81
78483;BME280;67772;50.158;8.658;2023-03-19T04:24:09;100160.56;;;11.22;64.51
78483;BME280;67772;50.158;8.658;2023-03-19T04:26:35;100169.66;;;11.26;64.67
78483;BME280;67772;50.158;8.658;2023-03-19T04:29:01;100169.91;;;11.19;63.49
78483;BME280;67772;50.158;8.658;2023-03-19T04:31:26;100173.91;;;11.22;63.69
78483;BME280;67772;50.158;8.658;2023-03-19T04:33:51;100182.38;;;11.14;64.93
78483;BME280;67772;50.158;8.658;2023-03-19T04:36:17;100176.06;;;11.20;64.81
78483;BME280;67772;50.158;8.658;2023-03-19T04:38:42;100174.56;;;11.07;64.96
78483;BME280;67772;50.158;8.658;2023-03-19T04:41:08;100174.75;;;11.01;65.12
78483;BME280;67772;50.158;8.658;2023-03-19T04:43:33;100178.34;;;11.11;63.66
78483;BME280;67772;50.158;8.658;2023-03-19T04:45:59;100181.16;;;11.00;64.38
78483;BME280;67772;50.158;8.658;2023-03-19T04:48:24;100189.31;;;10.88;64.46
78483;BME280;67772;50.158;8.658;2023-03-19T04:50:50;100192.28;;;10.92;63.84
78483;BME280;67772;50.158;8.658;2023-03-19T04:53:17;100189.75;;;10.80;64.26
78483;BME280;67772;50.158;8.658;2023-03-19T04:55:44;100182.06;;;10.62;65.37
78483;BME280;67772;50.158;8.658;2023-03-19T04:58:10;100182.66;;;10.69;65.39
78483;BME280;67772;50.158;8.658;2023-03-19T05:00:35;100178.78;;;10.77;64.79
78483;BME280;67772;50.158;8.658;2023-03-19T05:03:01;100178.09;;;10.64;65.00
78483;BME280;67772;50.158;8.658;2023-03-19T05:05:26;100194.72;;;10.72;65.16
78483;BME280;67772;50.158;8.658;2023-03-19T05:07:52;100191.69;;;10.85;63.85
78483;BME280;67772;50.158;8.658;2023-03-19T05:10:17;100192.56;;;10.68;64.19
78483;BME280;67772;50.158;8.658;2023-03-19T05:12:42;100191.56;;;10.75;63.51
78483;BME280;67772;50.158;8.658;2023-03-19T05:15:08;100195.38;;;10.84;62.64
78483;BME280;67772;50.158;8.658;2023-03-19T05:17:34;100192.69;;;10.79;63.06
78483;BME280;67772;50.158;8.658;2023-03-19T05:20:00;100196.50;;;10.88;63.13
78483;BME280;67772;50.158;8.658;2023-03-19T05:22:25;100195.38;;;10.84;62.15
78483;BME280;67772;50.158;8.658;2023-03-19T05:24:51;100199.59;;;10.80;62.79
78483;BME280;67772;50.158;8.658;2023-03-19T05:27:16;100205.88;;;10.90;61.65
78483;BME280;67772;50.158;8.658;2023-03-19T05:29:42;100204.94;;;10.80;62.46
78483;BME280;67772;50.158;8.658;2023-03-19T05:32:08;100201.34;;;10.91;61.21
78483;BME280;67772;50.158;8.658;2023-03-19T05:34:34;100199.91;;;10.83;61.48
78483;BME280;67772;50.158;8.658;2023-03-19T05:37:00;100210.88;;;10.87;61.43
78483;BME280;67772;50.158;8.658;2023-03-19T05:39:25;100215.56;;;10.75;62.62
78483;BME280;67772;50.158;8.658;2023-03-19T05:41:51;100222.38;;;10.65;62.85
78483;BME280;67772;50.158;8.658;2023-03-19T05:44:17;100229.91;;;10.68;62.60
78483;BME280;67772;50.158;8.658;2023-03-19T05:46:42;100230.31;;;10.60;63.20
78483;BME280;67772;50.158;8.658;2023-03-19T05:49:08;100229.47;;;10.55;63.41
78483;BME280;67772;50.158;8.658;2023-03-19T05:51:33;100234.78;;;10.55;63.90
78483;BME280;67772;50.158;8.658;2023-03-19T05:53:59;100237.81;;;10.63;63.63
78483;BME280;67772;50.158;8.658;2023-03-19T05:56:24;100238.81;;;10.57;63.27
78483;BME280;67772;50.158;8.658;2023-03-19T05:58:50;100237.13;;;10.51;63.71
78483;BME280;67772;50.158;8.658;2023-03-19T06:01:15;100241.25;;;10.59;63.41
78483;BME280;67772;50.158;8.658;2023-03-19T06:03:40;100242.03;;;10.59;62.88
78483;BME280;67772;50.158;8.658;2023-03-19T06:06:06;100241.56;;;10.62;62.58
78483;BME280;67772;50.158;8.658;2023-03-19T06:08:32;100248.19;;;10.60;63.38
78483;BME280;67772;50.158;8.658;2023-03-19T06:10:57;100250.13;;;10.64;63.01
78483;BME280;67772;50.158;8.658;2023-03-19T06:13:23;100255.06;;;10.78;62.88
78483;BME280;67772;50.158;8.658;2023-03-19T06:15:48;100257.19;;;10.76;62.83
78483;BME280;67772;50.158;8.658;2023-03-19T06:18:15;100251.91;;;10.59;62.78
78483;BME280;67772;50.158;8.658;2023-03-19T06:20:40;100254.53;;;10.76;62.44
78483;BME280;67772;50.158;8.658;2023-03-19T06:23:06;100254.53;;;10.97;61.66
78483;BME280;67772;50.158;8.658;2023-03-19T06:25:31;100268.94;;;10.96;60.83
78483;BME280;67772;50.158;8.658;2023-03-19T06:27:56;100262.16;;;10.89;61.65
78483;BME280;67772;50.158;8.658;2023-03-19T06:30:21;100258.13;;;10.86;62.44
78483;BME280;67772;50.158;8.658;2023-03-19T06:32:47;100271.34;;;10.98;61.91
78483;BME280;67772;50.158;8.658;2023-03-19T06:35:12;100269.97;;;11.17;61.30
78483;BME280;67772;50.158;8.658;2023-03-19T06:37:37;100262.78;;;11.17;61.44
78483;BME280;67772;50.158;8.658;2023-03-19T06:40:03;100261.97;;;11.17;61.65
78483;BME280;67772;50.158;8.658;2023-03-19T06:42:29;100266.56;;;11.21;60.56
78483;BME280;67772;50.158;8.658;2023-03-19T06:44:55;100271.31;;;11.41;60.98
78483;BME280;67772;50.158;8.658;2023-03-19T06:47:20;100280.41;;;11.18;60.83
78483;BME280;67772;50.158;8.658;2023-03-19T06:49:45;100278.09;;;11.27;61.06
78483;BME280;67772;50.158;8.658;2023-03-19T06:52:11;100278.53;;;11.19;61.82
78483;BME280;67772;50.158;8.658;2023-03-19T06:54:36;100284.81;;;11.08;61.87
78483;BME280;67772;50.158;8.658;2023-03-19T06:57:01;100278.59;;;11.24;61.55
78483;BME280;67772;50.158;8.658;2023-03-19T06:59:27;100286.00;;;11.43;60.48
78483;BME280;67772;50.158;8.658;2023-03-19T07:01:52;100284.22;;;11.49;60.15
78483;BME280;67772;50.158;8.658;2023-03-19T07:04:17;100283.00;;;11.62;60.57
78483;BME280;67772;50.158;8.658;2023-03-19T07:06:43;100276.03;;;11.82;59.65
78483;BME280;67772;50.158;8.658;2023-03-19T07:09:08;100277.25;;;12.01;59.31
78483;BME280;67772;50.158;8.658;2023-03-19T07:11:34;100291.34;;;12.23;57.94
78483;BME280;67772;50.158;8.658;2023-03-19T07:13:59;100296.75;;;12.33;57.71
78483;BME280;67772;50.158;8.658;2023-03-19T07:16:25;100296.53;;;12.40;57.85
78483;BME280;67772;50.158;8.658;2023-03-19T07:18:50;100284.06;;;12.56;56.58
78483;BME280;67772;50.158;8.658;2023-03-19T07:21:15;100295.94;;;12.70;56.89
78483;BME280;67772;50.158;8.658;2023-03-19T07:23:41;100295.78;;;12.91;55.32
78483;BME280;67772;50.158;8.658;2023-03-19T07:26:06;100299.28;;;12.97;55.40
78483;BME280;67772;50.158;8.658;2023-03-19T07:28:31;100297.28;;;13.24;55.15
78483;BME280;67772;50.158;8.658;2023-03-19T07:30:57;100294.16;;;13.52;54.01
78483;BME280;67772;50.158;8.658;2023-03-19T07:33:22;100299.03;;;13.90;52.91
78483;BME280;67772;50.158;8.658;2023-03-19T07:35:48;100300.16;;;14.40;51.52
78483;BME280;67772;50.158;8.658;2023-03-19T07:38:13;100299.88;;;14.66;50.45
78483;BME280;67772;50.158;8.658;2023-03-19T07:40:39;100304.06;;;14.97;49.28
78483;BME280;67772;50.158;8.658;2023-03-19T07:43:05;100303.53;;;15.59;48.11
78483;BME280;67772;50.158;8.658;2023-03-19T07:45:30;100304.28;;;16.09;45.80
78483;BME280;67772;50.158;8.658;2023-03-19T07:47:56;100305.25;;;16.23;45.69
78483;BME280;67772;50.158;8.658;2023-03-19T07:50:21;100310.88;;;16.55;44.28
78483;BME280;67772;50.158;8.658;2023-03-19T07:52:47;100306.19;;;16.37;45.53
78483;BME280;67772;50.158;8.658;2023-03-19T07:55:13;100314.63;;;16.25;45.86
78483;BME280;67772;50.158;8.658;2023-03-19T07:57:39;100315.63;;;16.01;45.97
78483;BME280;67772;50.158;8.658;2023-03-19T08:00:05;100316.16;;;15.64;47.31
78483;BME280;67772;50.158;8.658;2023-03-19T08:02:30;100322.47;;;15.29;47.89
78483;BME280;67772;50.158;8.658;2023-03-19T08:04:55;100313.97;;;15.07;48.70
78483;BME280;67772;50.158;8.658;2023-03-19T08:07:21;100313.22;;;14.91;49.51
78483;BME280;67772;50.158;8.658;2023-03-19T08:09:46;100324.28;;;14.65;50.39
78483;BME280;67772;50.158;8.658;2023-03-19T08:12:12;100318.91;;;14.65;50.78
78483;BME280;67772;50.158;8.658;2023-03-19T08:14:38;100320.81;;;14.54;51.06
78483;BME280;67772;50.158;8.658;2023-03-19T08:17:06;100327.22;;;14.73;50.42
78483;BME280;67772;50.158;8.658;2023-03-19T08:19:35;100333.94;;;14.61;50.80
78483;BME280;67772;50.158;8.658;2023-03-19T08:22:00;100336.59;;;14.86;50.53
78483;BME280;67772;50.158;8.658;2023-03-19T08:24:26;100323.13;;;15.01;49.98
78483;BME280;67772;50.158;8.658;2023-03-19T08:26:51;100327.41;;;15.07;49.55
78483;BME280;67772;50.158;8.658;2023-03-19T08:29:17;100324.84;;;15.46;48.28
78483;BME280;67772;50.158;8.658;2023-03-19T08:31:43;100328.88;;;15.92;47.46
78483;BME280;67772;50.158;8.658;2023-03-19T08:34:11;100332.19;;;16.18;46.88
78483;BME280;67772;50.158;8.658;2023-03-19T08:36:37;100326.34;;;16.39;46.29
78483;BME280;67772;50.158;8.658;2023-03-19T08:39:02;100324.78;;;16.67;45.17
78483;BME280;67772;50.158;8.658;2023-03-19T08:41:30;100334.91;;;17.04;44.26
78483;BME280;67772;50.158;8.658;2023-03-19T08:43:56;100323.66;;;17.20;44.67
78483;BME280;67772;50.158;8.658;2023-03-19T08:46:21;100341.50;;;17.16;44.02
78483;BME280;67772;50.158;8.658;2023-03-19T08:48:47;100336.78;;;17.50;43.70
78483;BME280;67772;50.158;8.658;2023-03-19T08:51:12;100332.41;;;18.10;42.33
78483;BME280;67772;50.158;8.658;2023-03-19T08:53:37;100322.19;;;18.58;41.02
78483;BME280;67772;50.158;8.658;2023-03-19T08:56:05;100331.84;;;20.17;37.15
78483;BME280;67772;50.158;8.658;2023-03-19T08:58:32;100338.22;;;21.91;33.84
78483;BME280;67772;50.158;8.658;2023-03-19T09:01:07;100329.75;;;24.97;28.82
78483;BME280;67772;50.158;8.658;2023-03-19T09:03:34;100336.13;;;26.13;26.50
78483;BME280;67772;50.158;8.658;2023-03-19T09:06:01;100335.72;;;26.26;26.14
78483;BME280;67772;50.158;8.658;2023-03-19T09:08:27;100324.78;;;27.48;24.46
78483;BME280;67772;50.158;8.658;2023-03-19T09:10:54;100326.00;;;28.84;23.06
78483;BME280;67772;50.158;8.658;2023-03-19T09:13:20;100318.53;;;29.86;21.25
78483;BME280;67772;50.158;8.658;2023-03-19T09:15:45;100331.13;;;29.34;21.23
78483;BME280;67772;50.158;8.658;2023-03-19T09:18:11;100325.31;;;29.65;21.13
78483;BME280;67772;50.158;8.658;2023-03-19T09:20:36;100341.41;;;27.08;24.31
78483;BME280;67772;50.158;8.658;2023-03-19T09:23:01;100341.16;;;28.36;23.32
78483;BME280;67772;50.158;8.658;2023-03-19T09:25:27;100329.19;;;29.64;21.59
78483;BME280;67772;50.158;8.658;2023-03-19T09:27:52;100339.78;;;29.89;20.52
78483;BME280;67772;50.158;8.658;2023-03-19T09:30:18;100339.72;;;30.48;20.20
78483;BME280;67772;50.158;8.658;2023-03-19T09:32:43;100329.00;;;31.85;19.07
78483;BME280;67772;50.158;8.658;2023-03-19T09:35:08;100325.66;;;32.27;18.37
78483;BME280;67772;50.158;8.658;2023-03-19T09:37:34;100330.50;;;30.33;20.29
78483;BME280;67772;50.158;8.658;2023-03-19T09:39:59;100336.31;;;29.65;21.71
78483;BME280;67772;50.158;8.658;2023-03-19T09:45:15;100326.00;;;32.18;18.60
78483;BME280;67772;50.158;8.658;2023-03-19T09:47:42;100324.03;;;32.22;17.97
78483;BME280;67772;50.158;8.658;2023-03-19T09:50:17;100328.22;;;31.88;19.00
78483;BME280;67772;50.158;8.658;2023-03-19T09:52:55;100335.13;;;28.50;22.49
78483;BME280;67772;50.158;8.658;2023-03-19T09:57:48;100348.94;;;26.24;26.06
78483;BME280;67772;50.158;8.658;2023-03-19T10:00:20;100356.69;;;24.00;29.37
78483;BME280;67772;50.158;8.658;2023-03-19T10:02:52;100353.31;;;22.87;31.13
78483;BME280;67772;50.158;8.658;2023-03-19T10:05:31;100350.53;;;22.06;33.49
78483;BME280;67772;50.158;8.658;2023-03-19T10:08:12;100349.56;;;22.02;33.22
78483;BME280;67772;50.158;8.658;2023-03-19T10:16:25;100342.94;;;23.18;30.70
78483;BME280;67772;50.158;8.658;2023-03-19T10:18:53;100340.34;;;22.83;32.26
78483;BME280;67772;50.158;8.658;2023-03-19T10:21:54;100338.53;;;22.24;32.61
78483;BME280;67772;50.158;8.658;2023-03-19T10:24:28;100341.91;;;21.22;35.15
78483;BME280;67772;50.158;8.658;2023-03-19T10:26:59;100340.38;;;21.47;34.56
78483;BME280;67772;50.158;8.658;2023-03-19T10:29:25;100335.09;;;21.42;35.22
78483;BME280;67772;50.158;8.658;2023-03-19T10:34:55;100324.16;;;20.85;36.11
78483;BME280;67772;50.158;8.658;2023-03-19T10:37:25;100331.41;;;20.68;35.81
78483;BME280;67772;50.158;8.658;2023-03-19T10:39:54;100327.56;;;20.99;35.46
78483;BME280;67772;50.158;8.658;2023-03-19T10:45:13;100330.94;;;21.36;35.16
78483;BME280;67772;50.158;8.658;2023-03-19T10:47:42;100326.56;;;22.08;34.02
78483;BME280;67772;50.158;8.658;2023-03-19T10:50:17;100328.13;;;22.09;34.48
78483;BME280;67772;50.158;8.658;2023-03-19T10:52:44;100331.59;;;22.52;32.96
78483;BME280;67772;50.158;8.658;2023-03-19T10:55:16;100324.94;;;22.24;33.20
78483;BME280;67772;50.158;8.658;2023-03-19T10:57:44;100329.03;;;21.62;34.89
78483;BME280;67772;50.158;8.658;2023-03-19T11:00:22;100329.16;;;21.31;35.13
78483;BME280;67772;50.158;8.658;2023-03-19T11:02:54;100331.34;;;21.12;35.71
78483;BME280;67772;50.158;8.658;2023-03-19T11:07:48;100332.22;;;20.68;36.46
78483;BME280;67772;50.158;8.658;2023-03-19T11:10:15;100334.25;;;20.32;37.00
78483;BME280;67772;50.158;8.658;2023-03-19T11:12:46;100334.50;;;20.08;38.05
78483;BME280;67772;50.158;8.658;2023-03-19T11:15:21;100337.56;;;19.93;38.72
78483;BME280;67772;50.158;8.658;2023-03-19T11:18:23;100338.38;;;19.94;38.18
78483;BME280;67772;50.158;8.658;2023-03-19T11:21:05;100334.75;;;19.98;37.96
78483;BME280;67772;50.158;8.658;2023-03-19T11:23:40;100325.47;;;20.57;37.28
78483;BME280;67772;50.158;8.658;2023-03-19T11:26:06;100336.00;;;21.29;36.04
78483;BME280;67772;50.158;8.658;2023-03-19T11:28:35;100337.97;;;21.54;35.27
78483;BME280;67772;50.158;8.658;2023-03-19T11:31:23;100335.56;;;21.44;35.44
78483;BME280;67772;50.158;8.658;2023-03-19T11:34:06;100324.84;;;20.91;38.03
78483;BME280;67772;50.158;8.658;2023-03-19T11:37:08;100325.53;;;21.53;37.01
78483;BME280;67772;50.158;8.658;2023-03-19T11:42:38;100324.25;;;22.61;34.46
78483;BME280;67772;50.158;8.658;2023-03-19T11:45:25;100325.13;;;21.85;35.52
78483;BME280;67772;50.158;8.658;2023-03-19T11:58:57;100313.28;;;20.77;39.37
78483;BME280;67772;50.158;8.658;2023-03-19T12:01:57;100320.63;;;20.46;39.89
78483;BME280;67772;50.158;8.658;2023-03-19T12:09:51;100299.28;;;25.43;30.12
78483;BME280;67772;50.158;8.658;2023-03-19T12:20:36;100303.31;;;23.58;32.37
78483;BME280;67772;50.158;8.658;2023-03-19T12:23:11;100309.03;;;23.07;33.27
78483;BME280;67772;50.158;8.658;2023-03-19T12:34:19;100318.53;;;19.49;42.88
78483;BME280;67772;50.158;8.658;2023-03-19T12:37:02;100319.25;;;19.00;43.49
78483;BME280;67772;50.158;8.658;2023-03-19T12:39:30;100319.03;;;19.10;44.00
78483;BME280;67772;50.158;8.658;2023-03-19T12:42:00;100319.88;;;19.74;43.18
78483;BME280;67772;50.158;8.658;2023-03-19T12:44:40;100313.91;;;20.21;40.65
78483;BME280;67772;50.158;8.658;2023-03-19T12:47:14;100305.72;;;20.12;39.21
78483;BME280;67772;50.158;8.658;2023-03-19T12:50:01;100303.50;;;20.37;39.22
78483;BME280;67772;50.158;8.658;2023-03-19T12:55:03;100302.75;;;19.65;40.15
78483;BME280;67772;50.158;8.658;2023-03-19T12:57:37;100310.00;;;19.56;39.89
78483;BME280;67772;50.158;8.658;2023-03-19T13:00:33;100307.22;;;19.20;40.60
78483;BME280;67772;50.158;8.658;2023-03-19T13:09:13;100308.09;;;18.61;41.65
78483;BME280;67772;50.158;8.658;2023-03-19T13:14:47;100315.38;;;18.61;41.82
78483;BME280;67772;50.158;8.658;2023-03-19T13:19:51;100324.47;;;18.19;43.83
78483;BME280;67772;50.158;8.658;2023-03-19T13:22:21;100330.66;;;18.19;44.11
78483;BME280;67772;50.158;8.658;2023-03-19T13:24:49;100330.06;;;18.22;44.83
78483;BME280;67772;50.158;8.658;2023-03-19T13:27:29;100333.53;;;17.91;45.55
78483;BME280;67772;50.158;8.658;2023-03-19T13:29:59;100338.47;;;17.65;46.34
78483;BME280;67772;50.158;8.658;2023-03-19T13:32:34;100340.59;;;17.02;48.31
78483;BME280;67772;50.158;8.658;2023-03-19T13:35:11;100338.72;;;16.98;49.28
78483;BME280;67772;50.158;8.658;2023-03-19T13:37:41;100340.69;;;17.16;48.95
78483;BME280;67772;50.158;8.658;2023-03-19T13:40:37;100337.88;;;16.78;49.21
78483;BME280;67772;50.158;8.658;2023-03-19T13:43:03;100337.94;;;16.97;49.55
78483;BME280;67772;50.158;8.658;2023-03-19T13:45:36;100342.03;;;16.66;51.54
78483;BME280;67772;50.158;8.658;2023-03-19T13:53:53;100337.66;;;16.41;52.39
78483;BME280;67772;50.158;8.658;2023-03-19T13:56:19;100332.03;;;16.38;52.00
78483;BME280;67772;50.158;8.658;2023-03-19T13:58:52;100337.19;;;16.29;52.53
78483;BME280;67772;50.158;8.658;2023-03-19T14:03:54;100336.69;;;15.93;53.40
78483;BME280;67772;50.158;8.658;2023-03-19T14:06:37;100337.75;;;15.98;53.62
78483;BME280;67772;50.158;8.658;2023-03-19T14:09:19;100332.91;;;15.94;53.56
78483;BME280;67772;50.158;8.658;2023-03-19T14:11:53;100335.09;;;15.87;52.00
78483;BME280;67772;50.158;8.658;2023-03-19T14:14:21;100329.41;;;15.94;51.65
78483;BME280;67772;50.158;8.658;2023-03-19T14:16:48;100336.81;;;15.73;52.50
78483;BME280;67772;50.158;8.658;2023-03-19T14:19:18;100338.00;;;15.47;53.21